FWKI/LLW METAR and TAF weather

Enter ICAO airport designator
Station Type Date Time Source
FWKI METAR 2018/07/20 14:00 UTC NOAA

FWKI 201400Z 15006KT 9999 SCT030 BKN090 17/08 Q1025 NOSIG


Station Type Date Time Source
FWKI Decoded METAR 2018/07/20 14:00 UTC NOAA

Lilongwe International Airport, Malawi (FWKI) 13-47S 033-46E 1229M
Jul 20, 2018 - 10:00 AM EDT / 2018.07.20 1400 UTC
Wind: from the SSE (150 degrees) at 7 MPH (6 KT):0
Visibility: greater than 7 mile(s):0
Sky conditions: mostly cloudy
Temperature: 62 F (17 C)
Dew Point: 46 F (8 C)
Relative Humidity: 55%
Pressure (altimeter): 30.27 in. Hg (1025 hPa)
ob: FWKI 201400Z 15006KT 9999 SCT030 BKN090 17/08 Q1025 NOSIG
cycle: 14

Station Type Date Time Source
FWKI TAF 2018/07/20 12:12 UTC NOAA

TAF TAF FWKI 200950Z 2012/2118 16010KT 9999 FEW024 BKN090
FM201500 10006KT CAVOK PROB30
TEMPO 2101/2105 VRB02KT 2000 BCFG SCT007
BECMG 2108/2110 09008KT 9999 SCT025
FM211500 08005KT CAVOK


Example: see airport list